Time;durP1;ratioP1;P1;durP2;ratioP2;P2;SDS_P1;SDS_P2;PMS_P1;PMS_P2;Temp;Humidity;BMP_temperature;BMP_pressure;BME280_temperature;BME280_humidity;BME280_pressure;Samples;Min_cycle;Max_cycle;Signal;HPM_P1;HPM_P2
2022/01/02 00:01:43;;;;;;;55.15;25.25;;;7.50;99.90;;;;;;5072396;28;20035;-84
2022/01/02 00:04:14;;;;;;;74.22;30.15;;;7.40;99.90;;;;;;5070903;28;20023;-84
2022/01/02 00:06:46;;;;;;;55.60;25.65;;;7.50;99.90;;;;;;5071274;28;20079;-84
2022/01/02 00:09:21;;;;;;;59.00;26.73;;;7.50;99.90;;;;;;5072090;28;20032;-84
2022/01/02 00:11:52;;;;;;;70.32;29.52;;;7.50;99.90;;;;;;5070978;28;20397;-84
2022/01/02 00:14:22;;;;;;;65.47;28.60;;;7.50;99.90;;;;;;5070749;28;20047;-83
2022/01/02 00:16:50;;;;;;;69.03;30.73;;;7.40;99.90;;;;;;5070806;28;20028;-83
2022/01/02 00:19:27;;;;;;;63.65;29.02;;;7.50;99.90;;;;;;5072034;28;20406;-83
2022/01/02 00:21:55;;;;;;;67.32;29.30;;;7.40;99.90;;;;;;5070806;28;20026;-83
2022/01/02 00:24:22;;;;;;;67.05;29.40;;;7.50;99.90;;;;;;5072060;28;20024;-83
2022/01/02 00:26:50;;;;;;;70.93;28.83;;;7.40;99.90;;;;;;5070698;28;20017;-83
2022/01/02 00:29:16;;;;;;;71.70;28.00;;;7.40;99.90;;;;;;5070420;28;20055;-83
2022/01/02 00:31:42;;;;;;;67.32;27.35;;;7.50;99.90;;;;;;5070502;28;20044;-84
2022/01/02 00:34:09;;;;;;;83.82;30.70;;;7.50;99.90;;;;;;5070543;28;20030;-83
2022/01/02 00:36:35;;;;;;;100.32;33.28;;;7.50;99.90;;;;;;5071761;28;20017;-83
2022/01/02 00:39:02;;;;;;;110.40;34.53;;;7.50;99.90;;;;;;5071293;28;20051;-83
2022/01/02 00:41:37;;;;;;;77.57;28.92;;;7.50;99.90;;;;;;5070455;28;20074;-83
2022/01/02 00:44:21;;;;;;;119.95;35.35;;;7.50;99.90;;;;;;5070296;28;20119;-83
2022/01/02 00:47:10;;;;;;;79.72;28.60;;;7.50;99.90;;;;;;5071698;28;20482;-83
2022/01/02 00:49:40;;;;;;;229.63;45.45;;;7.50;99.90;;;;;;5070293;28;20028;-83
2022/01/02 00:52:14;;;;;;;182.07;38.17;;;7.50;99.90;;;;;;5070380;28;20071;-83
2022/01/02 00:54:44;;;;;;;149.52;35.13;;;7.50;99.90;;;;;;5070232;28;20027;-83
2022/01/02 00:57:14;;;;;;;134.10;34.50;;;7.50;99.90;;;;;;5071177;28;20029;-83
2022/01/02 00:59:52;;;;;;;199.95;41.63;;;7.50;99.90;;;;;;5069919;28;20029;-83
2022/01/02 01:02:25;;;;;;;342.30;59.35;;;7.40;99.90;;;;;;5071418;28;20025;-84
2022/01/02 01:04:52;;;;;;;279.80;54.83;;;7.50;99.90;;;;;;5071495;28;20052;-83
2022/01/02 01:07:19;;;;;;;220.90;46.33;;;7.40;99.90;;;;;;5071380;28;20415;-83
2022/01/02 01:09:47;;;;;;;153.98;41.67;;;7.40;99.90;;;;;;5069929;28;20111;-84
2022/01/02 01:12:13;;;;;;;218.63;52.38;;;7.40;99.90;;;;;;5071273;28;20016;-83
2022/01/02 01:14:38;;;;;;;160.27;41.33;;;7.40;99.90;;;;;;5069859;28;20021;-83
2022/01/02 01:17:04;;;;;;;237.32;47.17;;;7.40;99.90;;;;;;5069981;28;20024;-83
2022/01/02 01:19:30;;;;;;;150.98;35.95;;;7.40;99.90;;;;;;5069694;28;20036;-84
2022/01/02 01:21:55;;;;;;;99.68;35.13;;;7.40;99.90;;;;;;5070088;28;20012;-83
2022/01/02 01:24:21;;;;;;;127.90;35.30;;;7.40;99.90;;;;;;5069631;28;20111;-84
2022/01/02 01:26:49;;;;;;;98.18;31.70;;;7.40;99.90;;;;;;5071091;28;20063;-84
2022/01/02 01:29:15;;;;;;;265.00;49.22;;;7.40;99.90;;;;;;5070007;28;20028;-83
2022/01/02 01:31:41;;;;;;;147.40;37.10;;;7.40;99.90;;;;;;5069486;28;20025;-83
2022/01/02 01:34:06;;;;;;;289.98;51.10;;;7.50;99.90;;;;;;5069782;28;20082;-83
2022/01/02 01:36:32;;;;;;;206.57;44.45;;;7.40;99.90;;;;;;5070581;28;20028;-83
2022/01/02 01:38:57;;;;;;;439.20;67.82;;;7.40;99.90;;;;;;5070848;28;20108;-84
2022/01/02 01:41:30;;;;;;;376.77;68.55;;;7.40;99.90;;;;;;5069718;28;20070;-83
2022/01/02 01:46:54;;;;;;;451.45;71.28;;;7.40;99.90;;;;;;5066523;28;20472;-83
2022/01/02 01:49:26;;;;;;;221.32;45.67;;;7.40;99.90;;;;;;5069688;28;20020;-83
2022/01/02 01:51:53;;;;;;;238.80;51.60;;;7.40;99.90;;;;;;5069489;28;20019;-83
2022/01/02 01:54:18;;;;;;;251.85;53.33;;;7.40;99.90;;;;;;5070969;28;20416;-83
2022/01/02 01:56:46;;;;;;;276.45;47.47;;;7.40;99.90;;;;;;5070524;28;20066;-83
2022/01/02 01:59:13;;;;;;;228.80;50.15;;;7.40;99.90;;;;;;5070700;28;20450;-83
2022/01/02 02:01:39;;;;;;;317.33;58.67;;;7.40;99.90;;;;;;5069327;28;20398;-83
2022/01/02 02:04:05;;;;;;;267.55;52.28;;;7.40;99.90;;;;;;5069832;28;20021;-83
2022/01/02 02:06:32;;;;;;;144.43;38.63;;;7.40;99.90;;;;;;5074850;28;20032;-83
2022/01/02 02:08:59;;;;;;;359.25;57.72;;;7.40;99.90;;;;;;5073408;28;20120;-82
2022/01/02 02:11:27;;;;;;;355.48;62.50;;;7.40;99.90;;;;;;5073433;28;20021;-83
2022/01/02 02:13:54;;;;;;;443.92;67.63;;;7.40;99.90;;;;;;5073431;28;20017;-82
2022/01/02 02:16:21;;;;;;;152.32;38.30;;;7.40;99.90;;;;;;5073140;28;20066;-82
2022/01/02 02:18:46;;;;;;;285.67;50.88;;;7.40;99.90;;;;;;5074453;28;20137;-82
2022/01/02 02:21:12;;;;;;;278.33;51.45;;;7.40;99.90;;;;;;5073170;28;20016;-82
2022/01/02 02:23:38;;;;;;;399.17;65.53;;;7.40;99.90;;;;;;5073169;28;20013;-82
2022/01/02 02:26:03;;;;;;;469.38;73.85;;;7.40;99.90;;;;;;5073028;28;20163;-82
2022/01/02 02:28:29;;;;;;;233.68;46.75;;;7.40;99.90;;;;;;5073085;28;20115;-82
2022/01/02 02:30:55;;;;;;;388.85;60.70;;;7.40;99.90;;;;;;5072951;28;20028;-82
2022/01/02 02:33:21;;;;;;;306.38;54.97;;;7.40;99.90;;;;;;5073315;28;20033;-82
2022/01/02 02:35:48;;;;;;;442.27;68.93;;;7.40;99.90;;;;;;5072857;28;20166;-83
2022/01/02 02:38:17;;;;;;;533.60;77.55;;;7.40;99.90;;;;;;5072736;28;20508;-83
2022/01/02 02:40:43;;;;;;;449.00;76.55;;;7.40;99.90;;;;;;5074226;28;20501;-83
2022/01/02 02:51:18;;;;;;;228.75;48.22;;;7.40;99.90;;;;;;5074050;28;20064;-82
2022/01/02 02:53:46;;;;;;;468.88;74.15;;;7.40;99.90;;;;;;5072865;28;20032;-82
2022/01/02 02:56:18;;;;;;;503.10;80.07;;;7.30;99.90;;;;;;5072498;28;20146;-83
2022/01/02 02:58:45;;;;;;;352.50;60.33;;;7.30;99.90;;;;;;5054930;28;20132;-83
2022/01/02 03:01:14;;;;;;;205.15;45.13;;;7.30;99.90;;;;;;5073088;28;20099;-83
2022/01/02 03:03:41;;;;;;;163.55;44.00;;;7.30;99.90;;;;;;5072457;28;20030;-82
2022/01/02 03:06:07;;;;;;;402.80;70.03;;;7.40;99.90;;;;;;5056284;28;20083;-82
2022/01/02 03:08:34;;;;;;;522.50;76.57;;;7.40;99.90;;;;;;5052659;28;20467;-82
2022/01/02 03:11:00;;;;;;;453.48;69.05;;;7.40;99.90;;;;;;5052338;28;20032;-82
2022/01/02 03:13:26;;;;;;;324.27;57.03;;;7.40;99.90;;;;;;5052227;28;20029;-82
2022/01/02 03:15:52;;;;;;;419.27;68.65;;;7.30;99.90;;;;;;5052132;28;20496;-82
2022/01/02 03:18:18;;;;;;;481.48;70.70;;;7.40;99.90;;;;;;5067011;28;20032;-82
2022/01/02 03:20:44;;;;;;;511.88;80.18;;;7.30;99.90;;;;;;5072107;28;20031;-82
2022/01/02 03:23:10;;;;;;;761.67;105.55;;;7.40;99.90;;;;;;5073726;28;20019;-82
2022/01/02 03:25:36;;;;;;;372.83;62.33;;;7.30;99.90;;;;;;5073254;28;20025;-83
2022/01/02 03:28:01;;;;;;;349.95;62.97;;;7.30;99.90;;;;;;5073330;28;20154;-82
2022/01/02 03:30:27;;;;;;;382.13;61.97;;;7.30;99.90;;;;;;5073236;28;20024;-82
2022/01/02 03:32:52;;;;;;;234.73;51.08;;;7.30;99.90;;;;;;5073287;28;20059;-82
2022/01/02 03:35:18;;;;;;;384.02;67.70;;;7.30;99.90;;;;;;5071874;28;20055;-83
2022/01/02 03:37:44;;;;;;;307.90;54.60;;;7.30;99.90;;;;;;5071745;28;20054;-82
2022/01/02 03:40:10;;;;;;;739.88;104.25;;;7.30;99.90;;;;;;5058311;28;20051;-83
2022/01/02 03:42:37;;;;;;;326.50;58.70;;;7.30;99.90;;;;;;5051624;28;20566;-83
2022/01/02 03:45:04;;;;;;;321.05;54.03;;;7.30;99.90;;;;;;5053316;28;20120;-82
2022/01/02 03:47:30;;;;;;;606.05;92.25;;;7.30;99.90;;;;;;5052874;28;20021;-82
2022/01/02 03:49:57;;;;;;;384.67;60.65;;;7.30;99.90;;;;;;5052835;28;20035;-82
2022/01/02 03:52:24;;;;;;;349.23;58.83;;;7.30;99.90;;;;;;5051531;28;20077;-82
2022/01/02 03:54:50;;;;;;;580.45;86.47;;;7.30;99.90;;;;;;5051402;28;20112;-82
2022/01/02 03:57:16;;;;;;;532.78;79.68;;;7.30;99.90;;;;;;5051435;28;20017;-82
2022/01/02 03:59:41;;;;;;;187.45;45.28;;;7.30;99.90;;;;;;5051256;28;20033;-82
2022/01/02 04:02:07;;;;;;;544.60;79.20;;;7.30;99.90;;;;;;5051459;28;20027;-82
2022/01/02 04:04:32;;;;;;;340.17;54.17;;;7.30;99.90;;;;;;5051258;28;20071;-82
2022/01/02 04:06:58;;;;;;;736.63;96.43;;;7.30;99.90;;;;;;5052678;28;20367;-82
2022/01/02 04:09:23;;;;;;;425.08;67.47;;;7.30;99.90;;;;;;5052467;28;20045;-82
2022/01/02 04:11:49;;;;;;;428.63;66.60;;;7.30;99.90;;;;;;5052470;28;20446;-83
2022/01/02 04:14:14;;;;;;;467.25;71.55;;;7.20;99.90;;;;;;5052374;28;20406;-83
2022/01/02 04:16:40;;;;;;;359.40;60.13;;;7.20;99.90;;;;;;5052655;28;20033;-83
2022/01/02 04:19:06;;;;;;;479.25;75.78;;;7.20;99.90;;;;;;5050931;28;20029;-83
2022/01/02 04:21:31;;;;;;;426.45;71.25;;;7.20;99.90;;;;;;5051191;28;20385;-82
2022/01/02 04:23:57;;;;;;;475.63;72.88;;;7.30;99.90;;;;;;5052224;28;20028;-83
2022/01/02 04:26:23;;;;;;;588.58;86.80;;;7.20;99.90;;;;;;5053422;28;20035;-82
2022/01/02 04:28:48;;;;;;;350.50;61.97;;;7.20;99.90;;;;;;5052129;28;20021;-82
2022/01/02 04:31:14;;;;;;;331.65;59.15;;;7.20;99.90;;;;;;5053119;28;20057;-82
2022/01/02 04:33:40;;;;;;;257.00;50.88;;;7.30;99.90;;;;;;5052909;28;20035;-83
2022/01/02 04:36:06;;;;;;;373.08;68.80;;;7.30;99.90;;;;;;5052554;28;20025;-82
2022/01/02 04:38:32;;;;;;;419.27;74.28;;;7.30;99.90;;;;;;5054738;28;20070;-83
2022/01/02 04:40:57;;;;;;;204.75;49.58;;;7.20;99.90;;;;;;5056345;28;20051;-83
2022/01/02 04:43:23;;;;;;;424.15;70.82;;;7.20;99.90;;;;;;5057912;28;20111;-82
2022/01/02 04:45:48;;;;;;;210.70;49.45;;;7.20;99.90;;;;;;5055229;28;20018;-83
2022/01/02 04:48:14;;;;;;;391.88;69.53;;;7.20;99.90;;;;;;5055247;28;20031;-82
2022/01/02 04:50:40;;;;;;;271.80;54.55;;;7.20;99.90;;;;;;5053990;28;20490;-82
2022/01/02 04:53:06;;;;;;;364.45;66.43;;;7.30;99.90;;;;;;5055871;28;20036;-82
2022/01/02 04:55:32;;;;;;;424.75;71.50;;;7.20;99.90;;;;;;5055386;28;20029;-82
2022/01/02 04:57:57;;;;;;;283.92;56.70;;;7.30;99.90;;;;;;5057391;28;20044;-82
2022/01/02 05:00:23;;;;;;;210.27;49.45;;;7.20;99.90;;;;;;5058875;28;20028;-82
2022/01/02 05:02:52;;;;;;;358.80;66.60;;;7.20;99.90;;;;;;5057072;28;20029;-82
2022/01/02 05:05:18;;;;;;;360.15;65.65;;;7.20;99.90;;;;;;5054682;28;20021;-82
2022/01/02 05:07:44;;;;;;;171.80;44.08;;;7.20;99.90;;;;;;5054160;28;20504;-81
2022/01/02 05:10:10;;;;;;;156.85;42.50;;;7.30;99.90;;;;;;5063289;28;20020;-81
2022/01/02 05:12:36;;;;;;;143.02;42.53;;;7.20;99.90;;;;;;5056146;28;20037;-81
2022/01/02 05:15:03;;;;;;;296.85;60.53;;;7.30;99.90;;;;;;5053477;28;20103;-81
2022/01/02 05:17:28;;;;;;;136.73;44.42;;;7.30;99.90;;;;;;5058713;28;20559;-81
2022/01/02 05:19:54;;;;;;;147.45;44.63;;;7.30;99.90;;;;;;5051239;28;20024;-82
2022/01/02 05:22:19;;;;;;;189.70;47.30;;;7.30;99.90;;;;;;5056122;28;20398;-82
2022/01/02 05:24:45;;;;;;;183.98;49.22;;;7.30;99.90;;;;;;5056231;28;20063;-81
2022/01/02 05:27:11;;;;;;;114.85;40.50;;;7.30;99.90;;;;;;5057075;28;20036;-82
2022/01/02 05:29:36;;;;;;;110.75;37.80;;;7.20;99.90;;;;;;5051404;28;20024;-81
2022/01/02 05:32:02;;;;;;;99.40;37.30;;;7.20;99.90;;;;;;5051523;28;20025;-81
2022/01/02 05:34:28;;;;;;;92.93;35.38;;;7.30;99.90;;;;;;5055273;28;20068;-81
2022/01/02 05:36:54;;;;;;;117.38;39.80;;;7.30;99.90;;;;;;5052620;28;20168;-81
2022/01/02 05:39:20;;;;;;;93.40;35.45;;;7.30;99.90;;;;;;5056752;28;20085;-81
2022/01/02 05:41:47;;;;;;;110.00;35.45;;;7.30;99.90;;;;;;5060433;28;20032;-81
2022/01/02 05:44:13;;;;;;;78.15;31.45;;;7.20;99.90;;;;;;5057235;28;20028;-81
2022/01/02 05:46:39;;;;;;;85.50;34.35;;;7.20;99.90;;;;;;5063242;28;20025;-81
2022/01/02 05:49:05;;;;;;;81.38;30.90;;;7.20;99.90;;;;;;5061804;28;20456;-81
2022/01/02 05:51:30;;;;;;;69.10;31.40;;;7.20;99.90;;;;;;5061540;28;20112;-81
2022/01/02 05:53:56;;;;;;;73.55;31.58;;;7.20;99.90;;;;;;5060196;28;20028;-81
2022/01/02 05:56:21;;;;;;;75.72;30.83;;;7.20;99.90;;;;;;5061747;28;20381;-81
2022/01/02 05:58:47;;;;;;;80.95;36.00;;;7.20;99.90;;;;;;5061877;28;20041;-81
2022/01/02 06:01:13;;;;;;;77.78;32.70;;;7.20;99.90;;;;;;5060634;28;20027;-81
2022/01/02 06:03:38;;;;;;;77.90;32.92;;;7.20;99.90;;;;;;5055596;28;20021;-82
2022/01/02 06:06:04;;;;;;;77.90;32.45;;;7.20;99.90;;;;;;5062856;28;20067;-82
2022/01/02 06:08:29;;;;;;;75.68;32.35;;;7.20;99.90;;;;;;5056543;28;20116;-81
2022/01/02 06:10:55;;;;;;;72.70;32.60;;;7.20;99.90;;;;;;5067104;28;20391;-81
2022/01/02 06:13:20;;;;;;;74.82;32.08;;;7.20;99.90;;;;;;5054599;28;20118;-82
2022/01/02 06:15:46;;;;;;;72.32;29.65;;;7.20;99.90;;;;;;5055623;28;20056;-81
2022/01/02 06:18:12;;;;;;;65.50;28.58;;;7.10;99.90;;;;;;5053967;28;20071;-81
2022/01/02 06:20:38;;;;;;;73.80;30.48;;;7.10;99.90;;;;;;5055257;28;20079;-81
2022/01/02 06:23:04;;;;;;;72.75;32.25;;;7.10;99.90;;;;;;5056100;28;20029;-81
2022/01/02 06:25:30;;;;;;;85.10;33.22;;;7.10;99.90;;;;;;5054965;28;20025;-82
2022/01/02 06:27:55;;;;;;;71.30;30.08;;;7.10;99.90;;;;;;5058625;28;20029;-82
2022/01/02 06:30:21;;;;;;;67.35;29.20;;;7.10;99.90;;;;;;5058620;28;20036;-81
2022/01/02 06:32:54;;;;;;;91.82;33.28;;;7.00;99.90;;;;;;5063733;28;20025;-81
2022/01/02 06:35:21;;;;;;;73.80;30.52;;;7.00;99.90;;;;;;5058121;28;20029;-81
2022/01/02 06:37:47;;;;;;;73.18;30.48;;;6.90;99.90;;;;;;5054967;28;20032;-81
2022/01/02 06:40:13;;;;;;;59.85;29.48;;;6.90;99.90;;;;;;5059147;28;20383;-81
2022/01/02 06:42:38;;;;;;;78.57;31.17;;;6.90;99.90;;;;;;5063846;28;20031;-81
2022/01/02 06:45:04;;;;;;;58.92;25.88;;;6.80;99.90;;;;;;5054783;28;20029;-81
2022/01/02 06:47:30;;;;;;;128.68;31.98;;;6.80;99.90;;;;;;5061546;28;20387;-81
2022/01/02 06:49:55;;;;;;;59.90;24.70;;;6.70;99.90;;;;;;5057818;28;20033;-81
2022/01/02 06:52:21;;;;;;;66.03;25.38;;;6.70;99.90;;;;;;5059121;28;20107;-81
2022/01/02 06:54:47;;;;;;;45.58;21.70;;;6.60;99.90;;;;;;5057697;28;20088;-81
2022/01/02 06:57:12;;;;;;;44.03;21.60;;;6.60;99.90;;;;;;5056551;28;20025;-81
2022/01/02 06:59:38;;;;;;;52.97;24.00;;;6.60;99.90;;;;;;5059851;28;20029;-81
2022/01/02 07:02:03;;;;;;;50.50;23.90;;;6.60;99.90;;;;;;5060039;28;20025;-81
2022/01/02 07:04:29;;;;;;;53.75;25.70;;;6.60;99.90;;;;;;5058087;28;20039;-81
2022/01/02 07:06:54;;;;;;;48.33;26.13;;;6.50;99.90;;;;;;5058943;28;20025;-81
2022/01/02 07:09:20;;;;;;;42.45;23.40;;;6.50;99.90;;;;;;5040292;28;20029;-81
2022/01/02 07:11:45;;;;;;;44.92;23.02;;;6.50;99.90;;;;;;5065530;28;20028;-81
2022/01/02 07:14:11;;;;;;;39.80;20.02;;;6.50;99.90;;;;;;5060607;28;20033;-81
2022/01/02 07:16:36;;;;;;;39.13;19.35;;;6.60;99.90;;;;;;5059657;28;20055;-82
2022/01/02 07:19:02;;;;;;;37.42;19.80;;;6.60;99.90;;;;;;5057492;28;20032;-81
2022/01/02 07:21:28;;;;;;;39.47;19.17;;;6.60;99.90;;;;;;5058151;28;20122;-81
2022/01/02 07:23:54;;;;;;;36.75;17.70;;;6.60;99.90;;;;;;5056844;28;20024;-81
2022/01/02 07:26:20;;;;;;;35.00;16.55;;;6.60;99.90;;;;;;5059565;28;20024;-81
2022/01/02 07:28:45;;;;;;;30.98;16.83;;;6.60;99.90;;;;;;5056691;28;20028;-81
2022/01/02 07:31:11;;;;;;;36.42;18.02;;;6.60;99.90;;;;;;5054407;28;20505;-81
2022/01/02 07:33:37;;;;;;;30.13;18.38;;;6.60;99.90;;;;;;5056693;28;20119;-81
2022/01/02 07:36:02;;;;;;;33.53;17.00;;;6.60;99.90;;;;;;5055267;28;20079;-81
2022/01/02 07:38:28;;;;;;;29.73;15.80;;;6.60;99.90;;;;;;5058251;28;20094;-81
2022/01/02 07:40:53;;;;;;;33.25;16.73;;;6.60;99.90;;;;;;5056401;28;20048;-81
2022/01/02 07:43:19;;;;;;;29.45;16.38;;;6.70;99.90;;;;;;5049650;28;20029;-81
2022/01/02 07:45:45;;;;;;;32.15;17.02;;;6.60;99.90;;;;;;5058585;28;20466;-81
2022/01/02 07:48:10;;;;;;;28.48;15.70;;;6.60;99.90;;;;;;5057449;28;20021;-81
2022/01/02 07:50:36;;;;;;;27.98;15.98;;;6.70;99.90;;;;;;5057055;28;20386;-81
2022/01/02 07:53:01;;;;;;;26.90;14.05;;;6.70;99.90;;;;;;5056577;28;20438;-81
2022/01/02 07:55:27;;;;;;;31.25;15.73;;;6.70;99.90;;;;;;5056629;28;20033;-81
2022/01/02 07:57:52;;;;;;;26.67;13.57;;;6.70;99.90;;;;;;5058133;28;20021;-81
2022/01/02 08:00:18;;;;;;;23.75;12.73;;;6.80;99.90;;;;;;5056407;28;20040;-81
2022/01/02 08:02:44;;;;;;;23.48;13.55;;;6.80;99.90;;;;;;5057866;28;20386;-81
2022/01/02 08:05:10;;;;;;;23.92;12.75;;;6.80;99.90;;;;;;5059034;28;20032;-81
2022/01/02 08:07:40;;;;;;;19.33;11.75;;;6.90;99.90;;;;;;5057909;28;20516;-81
2022/01/02 08:10:06;;;;;;;20.88;11.65;;;6.90;99.90;;;;;;5058602;28;20394;-81
2022/01/02 08:12:31;;;;;;;19.58;10.35;;;7.00;99.90;;;;;;5057269;28;20098;-81
2022/01/02 08:14:57;;;;;;;18.60;10.55;;;7.00;99.90;;;;;;5057013;28;20478;-81
2022/01/02 08:17:22;;;;;;;17.85;9.95;;;7.00;99.90;;;;;;5058236;28;20111;-80
2022/01/02 08:19:48;;;;;;;16.42;10.27;;;7.00;99.90;;;;;;5056213;28;20041;-81
2022/01/02 08:22:13;;;;;;;20.50;11.23;;;7.10;99.90;;;;;;5056204;28;20560;-81
2022/01/02 08:24:39;;;;;;;15.63;9.57;;;7.10;99.90;;;;;;5057360;28;20497;-81
2022/01/02 08:27:05;;;;;;;15.98;10.07;;;7.10;99.90;;;;;;5056981;28;20390;-81
2022/01/02 08:29:30;;;;;;;17.38;9.15;;;7.10;99.90;;;;;;5058014;28;20039;-81
2022/01/02 08:31:56;;;;;;;16.45;9.00;;;7.10;99.90;;;;;;5054581;28;20017;-81
2022/01/02 08:34:22;;;;;;;13.82;8.27;;;7.10;99.90;;;;;;5057475;28;20028;-81
2022/01/02 08:36:48;;;;;;;15.88;10.18;;;7.10;99.90;;;;;;5056086;28;20386;-81
2022/01/02 08:39:13;;;;;;;15.95;9.50;;;7.20;99.90;;;;;;5059062;28;20086;-81
2022/01/02 08:41:39;;;;;;;18.98;9.68;;;7.20;99.90;;;;;;5051855;28;20021;-81
2022/01/02 08:44:05;;;;;;;19.45;10.18;;;7.20;99.90;;;;;;5053415;28;20175;-81
2022/01/02 08:46:30;;;;;;;14.45;9.60;;;7.30;99.90;;;;;;5050793;28;20032;-80
2022/01/02 08:49:01;;;;;;;15.88;8.85;;;7.30;99.90;;;;;;5054230;28;20505;-81
2022/01/02 08:51:29;;;;;;;16.40;10.30;;;7.40;99.90;;;;;;5053075;28;20497;-81
2022/01/02 08:53:55;;;;;;;20.23;10.60;;;7.40;99.90;;;;;;5056912;28;20027;-81
2022/01/02 08:56:21;;;;;;;24.23;13.00;;;7.50;99.90;;;;;;5056722;28;20460;-81
2022/01/02 08:58:46;;;;;;;11.70;8.45;;;7.50;99.90;;;;;;5054437;28;20106;-81
2022/01/02 09:01:12;;;;;;;42.13;26.65;;;7.50;99.90;;;;;;5059742;28;20028;-81
2022/01/02 09:03:37;;;;;;;20.90;15.13;;;7.60;99.90;;;;;;5052193;28;20029;-81
2022/01/02 09:06:03;;;;;;;21.30;13.75;;;7.50;99.90;;;;;;5049733;28;20414;-81
2022/01/02 09:08:29;;;;;;;26.60;17.63;;;7.60;99.90;;;;;;5056024;28;20032;-81
2022/01/02 09:10:54;;;;;;;21.95;14.48;;;7.60;99.90;;;;;;5054825;28;20021;-81
2022/01/02 09:13:23;;;;;;;23.55;17.27;;;7.60;99.90;;;;;;5054144;28;20056;-81
2022/01/02 09:15:49;;;;;;;22.10;17.05;;;7.60;99.90;;;;;;5051878;28;20450;-81
2022/01/02 09:18:14;;;;;;;24.13;16.70;;;7.60;99.90;;;;;;5057166;28;20123;-81
2022/01/02 09:20:41;;;;;;;18.05;12.43;;;7.60;99.90;;;;;;5055704;28;20097;-81
2022/01/02 09:23:07;;;;;;;17.88;12.40;;;7.60;99.90;;;;;;5051539;28;20364;-82
2022/01/02 09:25:32;;;;;;;22.92;15.27;;;7.70;99.90;;;;;;5056409;28;20035;-82
2022/01/02 09:27:58;;;;;;;25.20;17.02;;;7.70;99.90;;;;;;5056974;28;20478;-81
2022/01/02 09:30:23;;;;;;;26.08;18.48;;;7.80;99.90;;;;;;5051555;28;20072;-79
2022/01/02 09:32:49;;;;;;;34.55;17.33;;;7.80;99.90;;;;;;5056186;28;20029;-79
2022/01/02 09:35:14;;;;;;;36.60;19.52;;;7.80;99.90;;;;;;5065739;28;20041;-79
2022/01/02 09:37:40;;;;;;;37.00;19.77;;;7.80;99.90;;;;;;5063008;28;20029;-80
2022/01/02 09:40:07;;;;;;;34.17;19.48;;;7.80;99.90;;;;;;5064661;28;20037;-80
2022/01/02 09:42:34;;;;;;;33.08;18.10;;;7.90;99.90;;;;;;5068943;28;20059;-80
2022/01/02 09:44:59;;;;;;;35.60;19.00;;;7.90;99.90;;;;;;5069196;28;20113;-79
2022/01/02 09:47:25;;;;;;;31.08;19.42;;;7.90;99.90;;;;;;5070501;28;20514;-79
2022/01/02 09:49:51;;;;;;;34.83;21.25;;;8.00;99.90;;;;;;5070416;28;20033;-79
2022/01/02 09:52:17;;;;;;;36.70;22.38;;;8.00;99.90;;;;;;5067872;28;20367;-78
2022/01/02 09:54:43;;;;;;;29.33;20.35;;;8.00;99.90;;;;;;5053897;28;20032;-78
2022/01/02 09:57:08;;;;;;;33.08;19.23;;;8.00;99.90;;;;;;5056266;28;20168;-78
2022/01/02 09:59:34;;;;;;;33.45;19.17;;;8.10;99.90;;;;;;5051969;28;20046;-79
2022/01/02 10:02:01;;;;;;;27.20;18.20;;;8.10;99.90;;;;;;5055180;28;20498;-78
2022/01/02 10:04:38;;;;;;;31.80;18.63;;;8.00;99.90;;;;;;5053884;28;20082;-78
2022/01/02 10:07:06;;;;;;;28.67;18.05;;;8.00;99.90;;;;;;5056438;28;20021;-78
2022/01/02 10:09:37;;;;;;;19.77;13.48;;;8.10;99.90;;;;;;5055817;28;20039;-78
2022/01/02 10:12:29;;;;;;;28.55;15.98;;;8.10;99.90;;;;;;5054298;28;20078;-78
2022/01/02 10:15:18;;;;;;;21.10;14.27;;;8.10;99.90;;;;;;5056389;28;20441;-78
2022/01/02 10:18:09;;;;;;;22.63;14.02;;;8.10;99.90;;;;;;5058736;28;20027;-78
2022/01/02 10:20:39;;;;;;;24.70;13.90;;;8.10;99.90;;;;;;5047955;28;20617;-78
2022/01/02 10:23:19;;;;;;;27.35;17.02;;;8.20;99.90;;;;;;5057413;28;20021;-78
2022/01/02 10:25:50;;;;;;;27.98;16.00;;;8.20;99.90;;;;;;5052534;28;20237;-78
2022/01/02 10:28:38;;;;;;;26.33;14.35;;;8.20;99.90;;;;;;5058211;28;20382;-78
2022/01/02 10:31:14;;;;;;;25.05;15.90;;;8.20;99.90;;;;;;5055455;28;20020;-79
2022/01/02 10:33:53;;;;;;;25.63;15.85;;;8.30;99.90;;;;;;5052502;28;20013;-78
2022/01/02 10:36:27;;;;;;;24.95;14.93;;;8.40;99.90;;;;;;5053295;28;20056;-78
2022/01/02 10:39:10;;;;;;;26.52;15.90;;;8.40;99.90;;;;;;5054257;28;20055;-78
2022/01/02 10:41:38;;;;;;;24.25;15.02;;;8.40;99.90;;;;;;5052451;28;20482;-78
2022/01/02 10:44:33;;;;;;;29.23;16.38;;;8.40;99.90;;;;;;5053628;28;20425;-78
2022/01/02 10:47:14;;;;;;;28.77;17.05;;;8.40;99.90;;;;;;5054133;28;20248;-78
2022/01/02 10:50:03;;;;;;;29.25;16.70;;;8.40;99.90;;;;;;5055199;28;20091;-78
2022/01/02 10:52:38;;;;;;;27.80;16.75;;;8.40;99.90;;;;;;5055452;28;20040;-79
2022/01/02 10:55:15;;;;;;;28.73;17.13;;;8.40;99.90;;;;;;5054405;28;20017;-78
2022/01/02 10:57:47;;;;;;;25.40;15.70;;;8.40;99.90;;;;;;5055660;28;20028;-79
2022/01/02 11:00:13;;;;;;;28.98;17.45;;;8.50;99.90;;;;;;5054326;28;20131;-78
2022/01/02 11:02:40;;;;;;;27.52;14.80;;;8.50;99.90;;;;;;5055771;28;20021;-78
2022/01/02 11:05:11;;;;;;;25.90;14.02;;;8.50;99.90;;;;;;5053722;28;20028;-78
2022/01/02 11:07:42;;;;;;;20.27;12.27;;;8.50;99.90;;;;;;5054046;28;20074;-78
2022/01/02 11:10:10;;;;;;;23.88;12.40;;;8.50;99.90;;;;;;5054669;28;20419;-78
2022/01/02 11:12:41;;;;;;;20.90;12.57;;;8.50;99.90;;;;;;5054307;28;20056;-79
2022/01/02 11:15:12;;;;;;;18.67;11.15;;;8.50;99.90;;;;;;5071476;28;20532;-78
2022/01/02 11:17:38;;;;;;;16.40;10.90;;;8.50;99.90;;;;;;5063686;28;20088;-78
2022/01/02 11:20:06;;;;;;;20.73;11.45;;;8.50;99.90;;;;;;5056879;28;20039;-78
2022/01/02 11:22:56;;;;;;;20.55;12.75;;;8.50;99.90;;;;;;5055499;28;20028;-79
2022/01/02 11:25:50;;;;;;;23.38;12.00;;;8.60;99.90;;;;;;5049290;28;20376;-79
2022/01/02 11:28:18;;;;;;;;;;;8.60;99.90;;;;;;5059310;28;20033;-79
2022/01/02 11:30:48;;;;;;;19.35;11.60;;;8.60;99.90;;;;;;5053154;28;19908;-78
2022/01/02 11:33:16;;;;;;;24.77;13.07;;;8.60;99.90;;;;;;5049366;28;20028;-78
2022/01/02 11:35:45;;;;;;;23.00;12.43;;;8.60;99.90;;;;;;5051292;28;20025;-79
2022/01/02 11:38:11;;;;;;;19.02;10.75;;;8.60;99.90;;;;;;5052472;28;20025;-79
2022/01/02 11:40:56;;;;;;;19.55;11.75;;;8.60;99.90;;;;;;5054195;28;20031;-78
2022/01/02 11:44:10;;;;;;;22.75;12.40;;;8.70;99.90;;;;;;5051766;28;20393;-79
2022/01/02 11:46:33;;;;;;;17.30;11.18;;;8.70;99.90;;;;;;5052878;28;20033;-78
2022/01/02 11:49:05;;;;;;;24.15;12.50;;;8.70;99.90;;;;;;5052976;28;20025;-79
2022/01/02 11:52:08;;;;;;;17.98;10.68;;;8.80;99.90;;;;;;5058182;28;20029;-78
2022/01/02 11:54:40;;;;;;;15.13;8.98;;;8.80;99.90;;;;;;5058323;28;20513;-79
2022/01/02 11:57:14;;;;;;;18.25;9.82;;;8.80;99.90;;;;;;5058946;28;20533;-79
2022/01/02 11:59:40;;;;;;;24.13;11.82;;;8.80;99.90;;;;;;5052467;28;20029;-78
2022/01/02 12:02:21;;;;;;;19.42;11.90;;;8.80;99.90;;;;;;5056189;28;20111;-78
2022/01/02 12:04:59;;;;;;;24.30;10.95;;;8.90;99.90;;;;;;5051549;28;20030;-79
2022/01/02 12:07:33;;;;;;;18.20;9.93;;;8.90;99.90;;;;;;5058069;28;20021;-78
2022/01/02 12:10:14;;;;;;;19.52;10.13;;;8.90;99.90;;;;;;5055949;28;20104;-79
2022/01/02 12:13:23;;;;;;;20.05;9.57;;;8.90;99.90;;;;;;5061350;28;20053;-79
2022/01/02 12:15:51;;;;;;;20.15;9.75;;;8.90;99.90;;;;;;5058271;28;20021;-79
2022/01/02 12:18:28;;;;;;;20.20;11.02;;;9.00;99.90;;;;;;5055797;28;20037;-78
2022/01/02 12:20:54;;;;;;;18.40;10.32;;;9.00;99.90;;;;;;5053375;28;20021;-79
2022/01/02 12:23:35;;;;;;;19.52;10.75;;;9.10;99.90;;;;;;5053433;28;20163;-79
2022/01/02 12:26:21;;;;;;;15.38;8.80;;;9.10;99.90;;;;;;5060693;28;20017;-79
2022/01/02 12:28:57;;;;;;;15.38;9.23;;;9.20;99.90;;;;;;5053283;28;20502;-78
2022/01/02 12:31:31;;;;;;;16.15;9.02;;;9.20;99.90;;;;;;5059905;28;20056;-78
2022/01/02 12:34:14;;;;;;;17.58;9.48;;;9.30;99.90;;;;;;5057207;28;20017;-79
2022/01/02 12:36:42;;;;;;;20.98;12.38;;;9.30;99.90;;;;;;5060133;28;20024;-79
2022/01/02 12:39:12;;;;;;;22.13;9.18;;;9.30;99.90;;;;;;5051010;28;20033;-78
2022/01/02 12:41:41;;;;;;;17.48;8.93;;;9.30;99.90;;;;;;5060843;28;20519;-79
2022/01/02 12:44:10;;;;;;;17.35;9.45;;;9.30;99.90;;;;;;5058261;28;20025;-79
2022/01/02 12:46:38;;;;;;;19.05;9.63;;;9.40;99.90;;;;;;5059556;28;20024;-79
2022/01/02 12:49:16;;;;;;;15.80;9.05;;;9.40;99.90;;;;;;5055584;28;20070;-79
2022/01/02 12:51:49;;;;;;;16.02;8.35;;;9.30;99.90;;;;;;5051221;28;20029;-79